Time;durP1;ratioP1;P1;durP2;ratioP2;P2;SDS_P1;SDS_P2;PMS_P1;PMS_P2;Temp;Humidity;BMP_temperature;BMP_pressure;BME280_temperature;BME280_humidity;BME280_pressure;Samples;Min_cycle;Max_cycle;Signal;HPM_P1;HPM_P2
2024/01/12 00:02:10;;;;;;;17.60;11.40;;;;;;;6.07;51.90;101233.70;107046;1263;25350;-51
2024/01/12 00:04:38;;;;;;;15.20;10.10;;;;;;;6.06;52.10;101233.87;106822;1270;25356;-51
2024/01/12 00:07:05;;;;;;;15.80;10.40;;;;;;;6.08;52.18;101233.88;106814;1268;25474;-52
2024/01/12 00:09:32;;;;;;;15.70;11.10;;;;;;;6.12;52.10;101238.72;107055;1256;25385;-52
2024/01/12 00:11:59;;;;;;;16.40;11.00;;;;;;;6.13;52.27;101239.25;106837;1274;25318;-52
2024/01/12 00:14:26;;;;;;;14.20;9.80;;;;;;;6.13;52.25;101239.06;107016;1267;25415;-52
2024/01/12 00:16:53;;;;;;;21.10;12.80;;;;;;;6.09;51.98;101239.23;107032;1263;25386;-51
2024/01/12 00:19:21;;;;;;;15.50;10.70;;;;;;;5.99;52.12;101236.25;107055;1258;25517;-51
2024/01/12 00:21:48;;;;;;;16.00;11.00;;;;;;;5.92;52.41;101239.66;106294;1258;1002993;-52
2024/01/12 00:24:15;;;;;;;17.50;11.90;;;;;;;5.86;52.50;101235.15;107126;1257;25426;-51
2024/01/12 00:26:42;;;;;;;15.90;10.80;;;;;;;5.81;52.59;101235.44;107032;1256;25452;-52
2024/01/12 00:29:09;;;;;;;15.70;11.30;;;;;;;5.75;52.77;101238.51;107091;1258;25319;-52
2024/01/12 00:31:37;;;;;;;17.10;11.60;;;;;;;5.67;52.94;101240.70;107045;1258;25436;-52
2024/01/12 00:34:04;;;;;;;17.80;11.80;;;;;;;5.60;53.23;101241.18;107118;1257;25327;-51
2024/01/12 00:36:31;;;;;;;18.20;12.00;;;;;;;5.55;53.42;101239.59;107040;1254;25409;-52
2024/01/12 00:38:58;;;;;;;15.00;10.70;;;;;;;5.54;53.70;101240.61;107126;1257;25392;-52
2024/01/12 00:41:25;;;;;;;21.00;11.90;;;;;;;5.51;53.65;101239.75;107081;1258;25487;-51
2024/01/12 00:43:52;;;;;;;17.80;11.90;;;;;;;5.46;53.62;101235.06;107193;1264;25356;-53
2024/01/12 00:46:19;;;;;;;15.80;12.20;;;;;;;5.41;53.78;101233.14;107102;1267;22559;-52
2024/01/12 00:48:48;;;;;;;19.30;13.10;;;;;;;5.33;53.87;101239.27;107112;1257;25468;-51
2024/01/12 00:51:16;;;;;;;18.60;13.00;;;;;;;5.27;53.92;101237.48;107114;1266;25443;-51
2024/01/12 00:53:44;;;;;;;17.60;12.40;;;;;;;5.21;54.02;101238.66;107252;1256;24648;-52
2024/01/12 00:56:12;;;;;;;18.10;13.10;;;;;;;5.18;54.35;101243.28;107103;1264;25332;-51
2024/01/12 00:58:39;;;;;;;20.40;12.80;;;;;;;5.14;54.41;101248.41;107051;1254;22524;-50
2024/01/12 01:01:06;;;;;;;22.60;13.00;;;;;;;5.11;54.49;101240.83;106842;1267;25356;-50
2024/01/12 01:03:33;;;;;;;21.60;14.80;;;;;;;5.09;54.69;101239.95;106795;1260;25318;-50
2024/01/12 01:06:00;;;;;;;20.70;14.40;;;;;;;5.06;54.68;101239.05;106285;1263;1003067;-50
2024/01/12 01:08:27;;;;;;;22.30;13.00;;;;;;;5.03;54.80;101231.47;107092;1257;25344;-50
2024/01/12 01:10:54;;;;;;;19.70;14.00;;;;;;;5.00;55.14;101232.30;106859;1257;25338;-51
2024/01/12 01:13:21;;;;;;;20.10;13.50;;;;;;;4.98;55.21;101231.25;107006;1266;25373;-50
2024/01/12 01:15:48;;;;;;;22.10;15.20;;;;;;;4.97;55.18;101226.61;106060;1259;1003253;-51
2024/01/12 01:18:17;;;;;;;19.70;13.40;;;;;;;5.02;55.50;101228.72;105932;1264;1003710;-51
2024/01/12 01:20:44;;;;;;;25.40;15.30;;;;;;;5.03;55.44;101224.93;106993;1257;25385;-51
2024/01/12 01:23:11;;;;;;;20.80;15.00;;;;;;;5.03;55.38;101221.34;107146;1263;25438;-51
2024/01/12 01:25:39;;;;;;;19.00;14.30;;;;;;;5.03;55.45;101216.86;106834;1261;24192;-51
2024/01/12 01:28:06;;;;;;;21.30;15.00;;;;;;;5.03;55.42;101218.92;107066;1264;25373;-50
2024/01/12 01:30:33;;;;;;;21.70;14.10;;;;;;;5.03;55.45;101217.71;107078;1254;25325;-50
2024/01/12 01:33:01;;;;;;;20.40;14.70;;;;;;;5.04;55.60;101220.64;106938;1267;25347;-51
2024/01/12 01:35:28;;;;;;;22.10;15.60;;;;;;;5.03;55.50;101223.38;106178;1273;1002918;-51
2024/01/12 01:37:55;;;;;;;23.60;15.70;;;;;;;5.01;55.38;101225.77;106997;1267;25513;-51
2024/01/12 01:40:22;;;;;;;22.50;15.80;;;;;;;4.99;55.50;101220.77;107128;1264;25366;-50
2024/01/12 01:42:49;;;;;;;21.70;16.00;;;;;;;4.98;55.53;101210.98;106476;1257;1003185;-50
2024/01/12 01:45:16;;;;;;;23.40;15.30;;;;;;;4.96;55.37;101213.53;107081;1258;25401;-50
2024/01/12 01:47:44;;;;;;;23.00;15.70;;;;;;;4.94;55.38;101207.68;107130;1257;25362;-51
2024/01/12 01:50:13;;;;;;;21.90;15.40;;;;;;;4.92;55.21;101205.41;107143;1261;25378;-50
2024/01/12 01:52:40;;;;;;;22.50;16.00;;;;;;;4.94;55.24;101212.13;106954;1257;22678;-50
2024/01/12 01:55:08;;;;;;;26.10;16.00;;;;;;;5.01;54.96;101212.38;107125;1257;22740;-50
2024/01/12 01:57:35;;;;;;;23.70;16.10;;;;;;;5.03;54.49;101220.13;106823;1260;22530;-51
2024/01/12 02:00:02;;;;;;;23.20;17.00;;;;;;;5.03;54.08;101214.45;106934;1254;25347;-50
2024/01/12 02:02:39;;;;;;;24.20;15.30;;;;;;;5.04;53.83;101217.04;106853;1273;25396;-51
2024/01/12 02:05:07;;;;;;;23.10;15.10;;;;;;;5.05;53.56;101210.85;107182;1256;22554;-50
2024/01/12 02:07:37;;;;;;;23.60;15.20;;;;;;;5.08;53.28;101208.80;107104;1255;22593;-50
2024/01/12 02:10:07;;;;;;;22.80;15.60;;;;;;;5.10;53.46;101209.86;106168;1263;1003008;-50
2024/01/12 02:12:35;;;;;;;22.30;14.80;;;;;;;5.13;53.32;101206.27;106789;1264;25302;-50
2024/01/12 02:15:07;;;;;;;23.60;15.90;;;;;;;5.17;53.02;101210.95;107166;1255;25459;-50
2024/01/12 02:17:34;;;;;;;;;;;;;;;5.18;52.90;101208.54;107032;1254;22502;-51
2024/01/12 02:20:02;;;;;;;23.20;16.30;;;;;;;5.19;52.63;101202.20;107180;1257;25487;-51
2024/01/12 02:22:30;;;;;;;23.80;16.10;;;;;;;5.19;52.44;101204.60;106813;1261;24276;-51
2024/01/12 02:24:57;;;;;;;21.20;15.80;;;;;;;5.21;52.59;101205.81;107123;1258;25516;-50
2024/01/12 02:27:25;;;;;;;25.20;17.10;;;;;;;5.24;52.37;101205.14;106293;1257;1003463;-50
2024/01/12 02:29:52;;;;;;;28.80;17.60;;;;;;;5.24;52.27;101208.59;106839;1267;25384;-50
2024/01/12 02:32:19;;;;;;;23.90;16.60;;;;;;;5.24;52.06;101206.85;106835;1273;24241;-50
2024/01/12 02:34:46;;;;;;;22.50;15.70;;;;;;;5.22;51.97;101206.85;107088;1256;25362;-50
2024/01/12 02:37:13;;;;;;;22.20;15.40;;;;;;;5.22;52.05;101209.42;107154;1254;24195;-50
2024/01/12 02:39:40;;;;;;;22.30;15.90;;;;;;;5.24;52.04;101209.27;107123;1251;23424;-51
2024/01/12 02:42:07;;;;;;;22.00;15.60;;;;;;;5.25;51.98;101209.80;107062;1257;25327;-50
2024/01/12 02:44:34;;;;;;;23.90;16.60;;;;;;;5.26;51.99;101211.19;107127;1261;25328;-50
2024/01/12 02:47:02;;;;;;;26.40;16.90;;;;;;;5.28;51.91;101208.61;106684;1250;556484;-50
2024/01/12 02:49:29;;;;;;;28.30;18.10;;;;;;;5.36;51.73;101205.92;107079;1251;25236;-50
2024/01/12 02:51:56;;;;;;;26.30;16.90;;;;;;;5.39;51.41;101209.21;106858;1260;25414;-51
2024/01/12 02:54:23;;;;;;;25.20;18.20;;;;;;;5.39;51.46;101208.17;107132;1257;25347;-50
2024/01/12 02:56:50;;;;;;;27.30;17.40;;;;;;;5.30;51.53;101206.39;106355;1251;1003005;-51
2024/01/12 02:59:18;;;;;;;26.10;18.10;;;;;;;5.25;51.70;101206.18;106543;1267;25427;-51
2024/01/12 03:01:45;;;;;;;28.30;18.50;;;;;;;5.23;51.72;101208.92;107018;1255;25478;-51
2024/01/12 03:04:12;;;;;;;30.30;18.70;;;;;;;5.22;51.76;101208.40;106409;1257;1003543;-50
2024/01/12 03:06:39;;;;;;;28.10;18.50;;;;;;;5.25;51.52;101214.27;107005;1257;25319;-51
2024/01/12 03:09:07;;;;;;;26.70;18.00;;;;;;;5.31;51.29;101212.07;107125;1256;25328;-50
2024/01/12 03:11:35;;;;;;;27.90;18.20;;;;;;;5.31;51.34;101206.57;107220;1256;24669;-51
2024/01/12 03:14:02;;;;;;;26.00;17.40;;;;;;;5.32;51.30;101195.92;106185;1272;1003569;-52
2024/01/12 03:16:29;;;;;;;28.80;18.80;;;;;;;5.34;51.25;101192.83;107183;1252;25488;-52
2024/01/12 03:18:57;;;;;;;26.70;17.70;;;;;;;5.34;51.31;101196.09;106424;1257;1003690;-52
2024/01/12 03:21:24;;;;;;;29.20;18.40;;;;;;;5.28;51.53;101194.34;107191;1257;25418;-50
2024/01/12 03:23:52;;;;;;;30.80;19.40;;;;;;;5.16;51.74;101197.00;106396;1256;1002928;-53
2024/01/12 03:26:18;;;;;;;30.50;19.20;;;;;;;5.19;51.63;101204.59;107139;1257;25245;-52
2024/01/12 03:28:46;;;;;;;27.50;18.70;;;;;;;5.20;51.59;101204.95;107116;1257;25443;-52
2024/01/12 03:31:13;;;;;;;27.40;18.20;;;;;;;5.21;51.58;101210.81;106885;1259;25366;-52
2024/01/12 03:33:42;;;;;;;26.10;18.90;;;;;;;5.22;51.59;101211.32;107174;1258;25356;-52
2024/01/12 03:36:10;;;;;;;30.20;19.80;;;;;;;5.22;51.78;101213.73;107216;1257;25328;-52
2024/01/12 03:38:37;;;;;;;27.20;19.00;;;;;;;5.24;51.70;101220.11;107182;1254;25350;-52
2024/01/12 03:41:05;;;;;;;25.80;17.50;;;;;;;5.27;51.89;101223.40;107150;1257;25339;-52
2024/01/12 03:43:33;;;;;;;28.50;19.10;;;;;;;5.30;51.65;101231.86;107079;1251;25356;-51
2024/01/12 03:46:00;;;;;;;26.30;17.80;;;;;;;5.33;51.67;101232.39;106845;1257;25516;-52
2024/01/12 03:48:27;;;;;;;27.20;19.10;;;;;;;5.36;51.63;101239.27;106140;1261;1003695;-51
2024/01/12 03:50:54;;;;;;;25.80;18.00;;;;;;;5.38;51.53;101246.20;107134;1260;25329;-52
2024/01/12 03:53:21;;;;;;;29.20;18.60;;;;;;;5.41;51.36;101252.92;106315;1257;1003648;-51
2024/01/12 03:55:48;;;;;;;30.10;19.40;;;;;;;5.41;51.27;101258.78;106978;1261;22565;-52
2024/01/12 03:58:15;;;;;;;27.00;18.40;;;;;;;5.43;51.22;101261.54;107032;1266;24205;-51
2024/01/12 04:00:42;;;;;;;28.70;17.90;;;;;;;5.45;51.05;101261.39;107134;1259;25411;-51
2024/01/12 04:03:09;;;;;;;25.10;18.40;;;;;;;5.54;50.73;101258.52;106337;1255;1003745;-51
2024/01/12 04:05:36;;;;;;;26.20;18.00;;;;;;;5.54;50.55;101259.72;107047;1257;25353;-51
2024/01/12 04:08:04;;;;;;;28.10;18.40;;;;;;;5.53;50.63;101259.54;106365;1255;1002985;-51
2024/01/12 04:10:31;;;;;;;29.60;19.40;;;;;;;5.51;50.49;101260.55;107174;1257;25347;-51
2024/01/12 04:12:58;;;;;;;31.10;19.90;;;;;;;5.50;50.68;101256.44;106366;1257;1003273;-51
2024/01/12 04:15:25;;;;;;;28.50;19.20;;;;;;;5.50;50.60;101261.59;106826;1270;25331;-52
2024/01/12 04:17:52;;;;;;;27.10;18.90;;;;;;;5.50;50.71;101265.38;106882;1270;25389;-51
2024/01/12 04:20:20;;;;;;;30.70;19.60;;;;;;;5.50;50.69;101272.77;106386;1257;1003052;-51
2024/01/12 04:22:47;;;;;;;29.50;19.90;;;;;;;5.50;50.71;101271.91;107122;1266;23861;-51
2024/01/12 04:25:14;;;;;;;26.30;18.70;;;;;;;5.49;50.80;101276.03;106918;1260;25331;-51
2024/01/12 04:27:41;;;;;;;28.60;19.00;;;;;;;5.46;50.99;101283.75;106823;1266;25337;-51
2024/01/12 04:30:09;;;;;;;28.10;19.40;;;;;;;5.39;51.34;101286.63;106381;1255;1003322;-51
2024/01/12 04:32:36;;;;;;;27.30;19.10;;;;;;;5.36;51.15;101290.73;107112;1261;25335;-53
2024/01/12 04:35:04;;;;;;;27.10;18.50;;;;;;;5.36;51.42;101295.36;106355;1256;1003745;-50
2024/01/12 04:37:31;;;;;;;28.50;18.40;;;;;;;5.36;51.51;101300.19;107134;1257;25328;-51
2024/01/12 04:39:58;;;;;;;32.20;19.40;;;;;;;5.37;51.65;101306.22;106441;1253;1003556;-50
2024/01/12 04:42:26;;;;;;;28.20;17.80;;;;;;;5.37;51.48;101308.27;107065;1257;23897;-52
2024/01/12 04:44:52;;;;;;;26.40;18.70;;;;;;;5.38;51.39;101315.36;106382;1257;1003094;-50
2024/01/12 04:47:20;;;;;;;28.30;18.20;;;;;;;5.35;51.60;101321.68;107097;1255;22629;-52
2024/01/12 04:49:47;;;;;;;27.10;18.20;;;;;;;5.32;51.57;101325.45;107227;1257;25443;-52
2024/01/12 04:52:14;;;;;;;27.60;17.40;;;;;;;5.31;51.59;101337.14;107179;1256;22536;-52
2024/01/12 04:54:41;;;;;;;28.00;19.10;;;;;;;5.32;51.82;101338.69;106786;1267;25344;-52
2024/01/12 04:57:08;;;;;;;25.60;17.90;;;;;;;5.33;51.77;101339.39;107016;1257;25414;-52
2024/01/12 04:59:35;;;;;;;25.60;17.50;;;;;;;5.33;51.81;101339.56;106351;1256;1003116;-52
2024/01/12 05:02:02;;;;;;;24.90;17.50;;;;;;;5.32;51.83;101341.95;106858;1270;25439;-51
2024/01/12 05:04:30;;;;;;;27.00;17.90;;;;;;;5.30;51.64;101345.20;107193;1264;25386;-52
2024/01/12 05:06:57;;;;;;;28.40;17.70;;;;;;;5.30;51.60;101347.62;107123;1256;25498;-52
2024/01/12 05:09:24;;;;;;;31.10;18.60;;;;;;;5.29;51.65;101350.19;105723;1270;1003537;-52
2024/01/12 05:11:51;;;;;;;25.70;17.10;;;;;;;5.27;51.89;101352.91;106764;1259;25360;-52
2024/01/12 05:14:18;;;;;;;26.40;17.40;;;;;;;5.25;51.84;101357.20;106830;1259;25477;-52
2024/01/12 05:16:46;;;;;;;25.50;16.10;;;;;;;5.23;51.71;101366.82;107156;1257;25337;-52
2024/01/12 05:19:12;;;;;;;23.00;16.00;;;;;;;5.20;51.55;101368.85;107074;1256;25351;-52
2024/01/12 05:21:40;;;;;;;21.60;14.40;;;;;;;5.16;51.68;101375.35;106901;1261;25337;-52
2024/01/12 05:24:07;;;;;;;22.90;14.50;;;;;;;5.14;51.46;101386.85;106799;1260;25405;-51
2024/01/12 05:26:34;;;;;;;20.10;11.80;;;;;;;5.08;50.61;101392.64;106511;1267;25365;-51
2024/01/12 05:29:02;;;;;;;10.20;6.10;;;;;;;4.97;48.89;101404.04;107200;1251;25408;-52
2024/01/12 05:31:29;;;;;;;6.30;2.70;;;;;;;4.82;45.98;101411.93;106835;1256;25363;-52
2024/01/12 05:33:56;;;;;;;4.60;2.70;;;;;;;4.66;43.69;101419.48;107100;1257;25353;-52
2024/01/12 05:36:23;;;;;;;3.00;2.00;;;;;;;4.54;43.71;101428.60;107165;1256;25382;-51
2024/01/12 05:38:50;;;;;;;3.40;2.00;;;;;;;4.47;43.65;101436.56;107167;1260;25482;-52
2024/01/12 05:41:18;;;;;;;3.90;1.50;;;;;;;4.44;43.22;101443.56;106320;1256;1003364;-52
2024/01/12 05:43:45;;;;;;;2.60;1.40;;;;;;;4.40;42.90;101450.21;107160;1257;25356;-52
2024/01/12 05:46:12;;;;;;;2.20;1.30;;;;;;;4.32;42.55;101455.24;107236;1256;25478;-52
2024/01/12 05:48:39;;;;;;;1.70;1.20;;;;;;;4.26;42.55;101458.43;106109;1256;1002910;-52
2024/01/12 05:51:07;;;;;;;1.70;1.00;;;;;;;4.22;42.68;101467.29;107152;1253;25414;-52
2024/01/12 05:53:34;;;;;;;1.20;0.90;;;;;;;4.17;42.48;101473.56;107117;1250;25354;-52
2024/01/12 05:56:01;;;;;;;1.00;0.60;;;;;;;4.07;41.69;101481.66;106344;1256;1003775;-52
2024/01/12 05:58:29;;;;;;;2.60;0.80;;;;;;;4.03;41.52;101487.77;106478;1256;1003146;-52
2024/01/12 06:00:56;;;;;;;2.60;0.70;;;;;;;4.02;41.46;101490.48;106466;1263;1003257;-52
2024/01/12 06:03:24;;;;;;;2.00;0.80;;;;;;;4.01;40.69;101492.70;107064;1256;23925;-52
2024/01/12 06:05:51;;;;;;;1.40;0.70;;;;;;;3.98;40.06;101499.69;107100;1250;25385;-52
2024/01/12 06:08:19;;;;;;;1.40;0.70;;;;;;;3.94;39.94;101499.09;105969;1275;1014756;-52
2024/01/12 06:10:46;;;;;;;2.00;0.80;;;;;;;3.91;39.65;101504.04;106892;1263;22540;-52
2024/01/12 06:13:13;;;;;;;4.30;0.90;;;;;;;3.88;38.98;101508.61;107158;1255;25331;-51
2024/01/12 06:15:41;;;;;;;1.50;0.80;;;;;;;3.82;38.82;101516.58;106346;1257;1003537;-52
2024/01/12 06:18:08;;;;;;;1.10;0.70;;;;;;;3.76;38.38;101527.30;107171;1256;25356;-52
2024/01/12 06:20:35;;;;;;;2.20;0.70;;;;;;;3.69;37.58;101531.95;106102;1259;1003141;-54
2024/01/12 06:23:02;;;;;;;5.00;0.80;;;;;;;3.61;37.03;101537.64;107084;1253;25337;-52
2024/01/12 06:25:31;;;;;;;2.70;0.80;;;;;;;3.53;36.96;101545.71;107107;1264;25399;-52
2024/01/12 06:28:00;;;;;;;2.30;0.60;;;;;;;3.43;36.43;101559.41;107084;1257;25375;-52
2024/01/12 06:30:27;;;;;;;1.40;0.80;;;;;;;3.34;36.78;101570.72;106804;1254;25341;-51
2024/01/12 06:32:54;;;;;;;2.60;0.80;;;;;;;3.26;36.71;101585.31;106778;1257;25396;-52
2024/01/12 06:35:21;;;;;;;2.00;0.90;;;;;;;3.20;36.60;101585.36;106280;1263;1003098;-52
2024/01/12 06:37:48;;;;;;;1.50;0.70;;;;;;;3.22;36.14;101597.06;106309;1256;1002907;-52
2024/01/12 06:40:16;;;;;;;4.20;1.20;;;;;;;3.25;36.27;101606.55;106349;1257;1002880;-51
2024/01/12 06:42:43;;;;;;;5.20;1.00;;;;;;;3.20;36.48;101606.77;106883;1259;25375;-52
2024/01/12 06:45:13;;;;;;;2.80;0.90;;;;;;;3.16;37.12;101616.65;106425;1254;1015958;-52
2024/01/12 06:47:40;;;;;;;4.20;1.10;;;;;;;3.13;37.24;101622.90;107086;1257;25334;-52
2024/01/12 06:50:08;;;;;;;1.10;0.60;;;;;;;3.08;37.28;101629.15;107075;1253;24208;-51
2024/01/12 06:52:36;;;;;;;3.30;1.10;;;;;;;3.01;37.27;101635.16;105926;1259;1002986;-51
2024/01/12 06:55:04;;;;;;;4.40;1.00;;;;;;;2.93;37.62;101641.66;106435;1251;1003073;-51
2024/01/12 06:57:32;;;;;;;2.10;0.70;;;;;;;2.88;37.96;101647.70;106432;1253;1003401;-52
2024/01/12 06:59:59;;;;;;;3.50;0.90;;;;;;;2.79;37.98;101649.89;107095;1257;25447;-51
2024/01/12 07:02:26;;;;;;;7.60;1.90;;;;;;;2.71;38.25;101657.05;106340;1254;1003768;-51
2024/01/12 07:04:54;;;;;;;4.20;1.40;;;;;;;2.61;38.73;101659.55;107159;1255;25432;-51
2024/01/12 07:07:21;;;;;;;4.70;1.40;;;;;;;2.51;38.61;101659.48;106165;1267;1003293;-51
2024/01/12 07:09:48;;;;;;;3.50;1.00;;;;;;;2.43;39.01;101662.52;106392;1266;1003847;-51
2024/01/12 07:12:15;;;;;;;1.80;0.80;;;;;;;2.38;39.84;101670.77;106161;1259;1003213;-51
2024/01/12 07:14:42;;;;;;;2.40;1.10;;;;;;;2.33;39.92;101680.73;105847;1275;1003084;-51
2024/01/12 07:17:10;;;;;;;1.20;0.80;;;;;;;2.27;39.90;101687.45;107147;1257;25312;-51
2024/01/12 07:19:37;;;;;;;4.30;0.90;;;;;;;2.19;40.13;101687.92;106268;1257;1003224;-51
2024/01/12 07:22:04;;;;;;;3.40;1.20;;;;;;;2.11;40.30;101700.02;107040;1266;25340;-51
2024/01/12 07:24:31;;;;;;;2.80;1.00;;;;;;;2.04;40.02;101694.85;107155;1257;25500;-51
2024/01/12 07:26:59;;;;;;;3.70;1.60;;;;;;;1.98;40.51;101693.65;106328;1256;1003611;-51
2024/01/12 07:29:26;;;;;;;8.40;2.20;;;;;;;1.91;40.49;101697.91;106928;1266;25407;-51
2024/01/12 07:31:54;;;;;;;13.00;1.50;;;;;;;1.87;40.48;101706.52;107063;1251;22527;-51
2024/01/12 07:34:21;;;;;;;6.40;1.40;;;;;;;1.84;40.42;101721.79;106494;1253;1003408;-51
2024/01/12 07:36:48;;;;;;;3.40;1.30;;;;;;;1.74;39.10;101717.42;107118;1253;25366;-51
2024/01/12 07:39:16;;;;;;;2.60;1.00;;;;;;;1.63;39.36;101717.60;107032;1256;25362;-51
2024/01/12 07:41:43;;;;;;;3.80;1.90;;;;;;;1.53;38.93;101708.08;107050;1257;22527;-51
2024/01/12 07:44:13;;;;;;;4.80;1.70;;;;;;;1.45;39.65;101729.05;106903;1267;22531;-51
2024/01/12 07:46:40;;;;;;;4.80;2.60;;;;;;;1.37;38.74;101745.36;106856;1265;25429;-51
2024/01/12 07:49:07;;;;;;;9.50;4.00;;;;;;;1.30;38.63;101750.47;106845;1259;25487;-51
2024/01/12 07:51:34;;;;;;;12.90;3.00;;;;;;;1.22;38.71;101755.68;106795;1256;25241;-51
2024/01/12 07:54:01;;;;;;;7.30;2.80;;;;;;;1.17;38.18;101748.98;107095;1262;25478;-52
2024/01/12 07:56:28;;;;;;;1.80;1.60;;;;;;;1.09;38.27;101756.59;107186;1259;25290;-51
2024/01/12 07:58:57;;;;;;;2.80;1.40;;;;;;;1.05;38.91;101767.41;107136;1253;25477;-51
2024/01/12 08:01:24;;;;;;;2.80;1.20;;;;;;;1.03;39.24;101770.60;107156;1254;25347;-51
2024/01/12 08:03:52;;;;;;;2.80;1.30;;;;;;;1.03;39.60;101772.80;107110;1267;25356;-51
2024/01/12 08:06:20;;;;;;;3.30;1.50;;;;;;;1.04;39.87;101774.90;107128;1266;25417;-52
2024/01/12 08:08:47;;;;;;;5.30;1.30;;;;;;;1.07;39.88;101766.60;107103;1266;22608;-52
2024/01/12 08:11:14;;;;;;;5.20;1.80;;;;;;;1.11;40.19;101772.06;107070;1270;25411;-52
2024/01/12 08:13:58;;;;;;;3.00;1.00;;;;;;;1.10;40.13;101779.52;106138;1272;1003250;-51
2024/01/12 08:16:27;;;;;;;3.40;1.30;;;;;;;1.08;39.47;101791.11;106857;1266;25391;-52
2024/01/12 08:18:54;;;;;;;2.40;1.10;;;;;;;1.07;40.06;101797.89;107076;1251;22776;-53
2024/01/12 08:21:21;;;;;;;1.30;0.80;;;;;;;1.04;39.97;101807.02;107118;1266;22564;-52
2024/01/12 08:23:48;;;;;;;1.80;0.80;;;;;;;1.03;39.61;101808.50;107136;1267;25821;-52
2024/01/12 08:26:15;;;;;;;6.40;2.20;;;;;;;0.97;39.09;101818.40;106324;1255;1003498;-51
2024/01/12 08:28:43;;;;;;;6.40;2.60;;;;;;;0.92;38.48;101817.23;107141;1258;25350;-51
2024/01/12 08:31:10;;;;;;;4.30;2.30;;;;;;;0.89;39.05;101818.46;107050;1257;25366;-51
2024/01/12 08:33:37;;;;;;;3.60;1.50;;;;;;;0.86;38.59;101824.69;106722;1260;25327;-52
2024/01/12 08:36:05;;;;;;;6.20;3.30;;;;;;;0.87;38.89;101821.63;106463;1257;1003775;-52
2024/01/12 08:38:32;;;;;;;6.90;2.50;;;;;;;0.84;38.38;101826.67;106871;1257;25530;-52
2024/01/12 08:41:00;;;;;;;4.20;3.00;;;;;;;0.83;38.68;101825.25;107171;1254;25328;-52
2024/01/12 08:43:27;;;;;;;3.80;2.50;;;;;;;0.83;38.66;101831.41;105842;1271;1003492;-52
2024/01/12 08:45:55;;;;;;;2.50;1.60;;;;;;;0.81;38.94;101832.54;106370;1266;1003010;-52
2024/01/12 08:48:22;;;;;;;2.00;1.30;;;;;;;0.79;38.06;101832.14;106301;1266;1002884;-52
2024/01/12 08:50:50;;;;;;;2.30;2.00;;;;;;;0.74;37.75;101832.81;107172;1263;25366;-52
2024/01/12 08:53:18;;;;;;;4.80;2.10;;;;;;;0.69;37.95;101845.95;107065;1255;25366;-52
2024/01/12 08:55:45;;;;;;;4.40;1.50;;;;;;;0.64;37.68;101852.75;107066;1251;22552;-51
2024/01/12 08:58:12;;;;;;;3.30;1.80;;;;;;;0.58;37.66;101854.91;106383;1257;1015891;-52
2024/01/12 09:00:39;;;;;;;4.80;2.40;;;;;;;0.56;37.99;101862.70;107132;1257;25414;-52
2024/01/12 09:03:06;;;;;;;8.90;3.40;;;;;;;0.56;38.12;101870.55;107124;1263;25366;-52
2024/01/12 09:05:34;;;;;;;4.40;1.70;;;;;;;0.56;38.76;101870.90;107173;1256;23188;-52
2024/01/12 09:08:01;;;;;;;2.80;1.70;;;;;;;0.57;38.17;101881.70;107100;1256;25365;-52
2024/01/12 09:10:29;;;;;;;2.80;1.40;;;;;;;0.60;38.85;101882.31;107028;1253;25366;-52
2024/01/12 09:12:55;;;;;;;4.80;2.10;;;;;;;0.64;38.59;101877.17;106411;1256;1002356;-52
2024/01/12 09:15:22;;;;;;;6.60;1.50;;;;;;;0.65;38.50;101873.80;107061;1256;25356;-52
2024/01/12 09:17:50;;;;;;;4.80;2.10;;;;;;;0.67;38.45;101882.41;107186;1267;25369;-52
2024/01/12 09:20:18;;;;;;;1.70;1.10;;;;;;;0.66;38.45;101886.48;107135;1270;25283;-52
2024/01/12 09:22:46;;;;;;;3.40;2.30;;;;;;;0.68;38.63;101895.08;107103;1266;25353;-52
2024/01/12 09:25:13;;;;;;;3.00;1.20;;;;;;;0.69;38.93;101899.91;107146;1266;25340;-52
2024/01/12 09:27:40;;;;;;;3.50;1.80;;;;;;;0.74;38.47;101907.08;107173;1266;24557;-52
2024/01/12 09:30:09;;;;;;;1.90;1.40;;;;;;;0.79;38.71;101912.02;106377;1257;1002948;-52
2024/01/12 09:32:36;;;;;;;4.00;1.30;;;;;;;0.84;38.73;101915.98;106917;1259;25404;-52
2024/01/12 09:35:05;;;;;;;3.00;1.20;;;;;;;0.89;39.04;101918.02;107030;1266;25347;-52
2024/01/12 09:37:33;;;;;;;2.80;2.50;;;;;;;0.93;39.28;101915.61;107157;1267;25356;-52
2024/01/12 09:40:00;;;;;;;3.30;1.20;;;;;;;0.93;38.72;101910.17;107069;1266;25338;-52
2024/01/12 09:42:27;;;;;;;2.90;1.10;;;;;;;0.91;38.50;101909.41;106803;1260;25356;-52
2024/01/12 09:44:54;;;;;;;2.20;1.00;;;;;;;0.91;38.44;101909.23;105953;1265;1003185;-52
2024/01/12 09:47:35;;;;;;;5.50;1.00;;;;;;;0.92;38.72;101912.34;105996;1267;1003599;-53
2024/01/12 09:50:03;;;;;;;0.90;0.90;;;;;;;0.89;38.20;101916.17;106681;1272;24269;-52
2024/01/12 09:52:31;;;;;;;1.30;0.80;;;;;;;0.84;38.47;101912.08;106722;1275;24228;-54
2024/01/12 09:54:58;;;;;;;1.60;1.00;;;;;;;0.82;38.82;101921.56;106720;1262;22649;-51
2024/01/12 09:57:25;;;;;;;1.60;1.20;;;;;;;0.78;38.60;101918.86;106696;1274;25414;-52
2024/01/12 09:59:52;;;;;;;2.50;1.10;;;;;;;0.73;38.52;101918.67;106379;1277;25352;-52
2024/01/12 10:02:19;;;;;;;5.10;1.20;;;;;;;0.67;38.65;101926.98;105942;1272;1003620;-52
2024/01/12 10:04:47;;;;;;;1.10;1.00;;;;;;;0.63;39.25;101923.73;106802;1267;25098;-52
2024/01/12 10:07:13;;;;;;;2.20;1.20;;;;;;;0.62;39.29;101922.16;106692;1272;25297;-52
2024/01/12 10:09:41;;;;;;;4.40;2.10;;;;;;;0.61;38.78;101925.02;106625;1279;25422;-52
2024/01/12 10:12:08;;;;;;;3.80;1.00;;;;;;;0.62;38.73;101917.74;106763;1260;22949;-52
2024/01/12 10:14:35;;;;;;;1.60;0.90;;;;;;;0.62;38.79;101923.90;105844;1259;1002987;-52
2024/01/12 10:17:02;;;;;;;2.00;1.00;;;;;;;0.64;38.67;101920.71;106080;1262;1003195;-52
2024/01/12 10:19:29;;;;;;;1.60;1.10;;;;;;;0.65;38.73;101921.08;106800;1267;25414;-52
2024/01/12 10:21:57;;;;;;;4.60;1.00;;;;;;;0.63;38.46;101919.83;106046;1274;1002826;-52
2024/01/12 10:24:24;;;;;;;1.60;1.00;;;;;;;0.64;38.94;101924.98;105947;1260;1002846;-52
2024/01/12 10:26:52;;;;;;;2.60;1.40;;;;;;;0.63;39.23;101925.81;105900;1275;1003649;-52
2024/01/12 10:29:19;;;;;;;2.60;1.00;;;;;;;0.61;38.81;101925.39;105854;1263;1003101;-52
2024/01/12 10:31:48;;;;;;;2.50;1.20;;;;;;;0.61;39.15;101931.20;106677;1272;25331;-52
2024/01/12 10:34:15;;;;;;;3.60;1.40;;;;;;;0.64;39.24;101930.30;106026;1259;1003100;-52
2024/01/12 10:36:45;;;;;;;2.90;1.20;;;;;;;0.68;39.00;101930.09;106560;1274;22529;-52
2024/01/12 10:39:13;;;;;;;2.70;1.60;;;;;;;0.71;38.85;101927.29;106852;1270;22714;-52
2024/01/12 10:41:41;;;;;;;2.70;1.20;;;;;;;0.72;38.69;101926.48;105916;1270;1003003;-52
2024/01/12 10:44:08;;;;;;;1.30;1.10;;;;;;;0.71;38.61;101928.17;106762;1270;24968;-52
2024/01/12 10:46:57;;;;;;;2.70;1.40;;;;;;;0.71;38.88;101927.46;105964;1257;1003116;-52
2024/01/12 10:49:28;;;;;;;2.60;1.30;;;;;;;0.73;38.58;101921.89;106030;1270;1003352;-53
2024/01/12 10:52:13;;;;;;;2.30;1.20;;;;;;;0.73;38.47;101926.02;106040;1272;1002896;-52
2024/01/12 10:55:04;;;;;;;1.90;1.10;;;;;;;0.74;38.66;101927.75;105898;1270;1003418;-53
2024/01/12 10:57:35;;;;;;;1.70;1.00;;;;;;;0.77;38.50;101940.68;107094;1266;25235;-52
2024/01/12 11:00:04;;;;;;;1.60;1.20;;;;;;;0.77;38.48;101941.50;106833;1274;25334;-52
2024/01/12 11:02:32;;;;;;;3.80;1.50;;;;;;;0.77;38.30;101941.20;106037;1267;1003077;-52
2024/01/12 11:04:59;;;;;;;5.70;1.40;;;;;;;0.77;38.19;101946.83;106750;1269;24468;-52
2024/01/12 11:07:27;;;;;;;2.20;1.50;;;;;;;0.77;38.00;101941.70;106748;1271;25405;-52
2024/01/12 11:09:54;;;;;;;3.40;1.90;;;;;;;0.77;37.89;101946.49;106704;1270;25734;-52
2024/01/12 11:12:39;;;;;;;2.60;1.40;;;;;;;0.76;37.67;101950.38;106337;1270;25570;-54
2024/01/12 11:15:06;;;;;;;2.70;1.70;;;;;;;0.70;37.89;101949.81;106744;1270;25393;-52
2024/01/12 11:17:35;;;;;;;3.80;2.00;;;;;;;0.67;38.23;101951.40;105629;1262;1003773;-52